Terminal Aerodrome Forecast
Issued by NWS

Home | Current Version | Previous Version | Text Only | Print | Product List | Glossary On
Versions: 1 2 3 4 5 6 7 8 9 10 11 12 13 14 15 16 17 18 19 20 21 22 23 24 25 26 27 28 29 30 31 32 33 34 35 36 37 38 39 40 41 42 43 44 45 46
000
FTUS43 KMKX 201141
TAFUES
TAF
KUES 201141Z 2012/2112 23010KT P6SM VCSH SCT025 BKN080
      TEMPO 2013/2015 5SM -SHRA BKN025
     FM201500 23012G20KT P6SM VCSH SCT025 BKN050
     FM201700 24011G20KT P6SM VCTS SCT025 BKN070CB
     FM202100 25011KT P6SM SCT040
     FM210100 25005KT P6SM SCT100
     FM210600 24005KT P6SM VCSH BKN040
     FM210800 29012G20KT P6SM SCT025=

USA.gov is the U.S. government's official web portal to all federal, state and local government web resources and services.